Time;durP1;ratioP1;P1;durP2;ratioP2;P2;SDS_P1;SDS_P2;PMS_P1;PMS_P2;Temp;Humidity;BMP_temperature;BMP_pressure;BME280_temperature;BME280_humidity;BME280_pressure;Samples;Min_cycle;Max_cycle;Signal;HPM_P1;HPM_P2
2022/08/22 00:00:13;;;;;;;10.77;5.53;;;19.00;1.00;;;;;;5089179;28;20455;-75
2022/08/22 00:02:45;;;;;;;10.30;5.30;;;19.00;1.00;;;;;;5087634;28;20422;-76
2022/08/22 00:05:16;;;;;;;10.97;6.00;;;18.90;1.00;;;;;;5089185;28;20650;-75
2022/08/22 00:08:00;;;;;;;9.23;5.80;;;19.00;1.00;;;;;;5090588;28;20414;-75
2022/08/22 00:10:51;;;;;;;8.93;5.57;;;19.00;1.00;;;;;;5088596;28;20464;-75
2022/08/22 00:13:27;;;;;;;9.10;6.10;;;19.00;1.00;;;;;;5084973;28;20838;-75
2022/08/22 00:16:01;;;;;;;11.43;6.17;;;19.10;1.00;;;;;;5088542;28;20425;-76
2022/08/22 00:19:04;;;;;;;9.80;5.87;;;19.00;1.00;;;;;;5090705;28;20639;-76
2022/08/22 00:22:01;;;;;;;9.63;6.10;;;18.90;1.00;;;;;;5086933;28;20520;-75
2022/08/22 00:24:37;;;;;;;8.30;5.63;;;18.80;1.00;;;;;;5086880;28;20445;-75
2022/08/22 00:27:16;;;;;;;8.77;5.20;;;18.70;1.00;;;;;;5082805;28;20632;-76
2022/08/22 00:29:48;;;;;;;7.90;5.20;;;18.60;1.00;;;;;;5088819;28;20429;-76
2022/08/22 00:32:31;;;;;;;10.63;5.63;;;18.60;1.00;;;;;;5087102;28;20454;-75
2022/08/22 00:35:12;;;;;;;11.33;5.50;;;18.50;1.00;;;;;;5087409;28;20397;-75
2022/08/22 00:37:44;;;;;;;7.97;5.70;;;18.40;1.00;;;;;;5085383;28;20427;-75
2022/08/22 00:40:29;;;;;;;13.30;5.87;;;18.30;1.00;;;;;;5074982;28;20495;-75
2022/08/22 00:43:16;;;;;;;8.13;5.20;;;18.20;1.00;;;;;;5090145;28;20418;-75
2022/08/22 00:45:48;;;;;;;9.33;5.50;;;18.10;1.00;;;;;;5085501;28;20516;-75
2022/08/22 00:48:26;;;;;;;8.07;5.20;;;18.00;1.00;;;;;;5084757;28;20409;-76
2022/08/22 00:51:14;;;;;;;9.00;5.87;;;18.00;1.00;;;;;;5083392;28;20546;-76
2022/08/22 00:53:45;;;;;;;6.63;5.20;;;18.00;1.00;;;;;;5093953;28;20485;-76
2022/08/22 00:56:24;;;;;;;9.37;5.60;;;18.00;1.00;;;;;;5089361;28;20402;-75
2022/08/22 00:58:58;;;;;;;9.13;5.60;;;18.00;1.00;;;;;;5083925;28;20454;-75
2022/08/22 01:01:33;;;;;;;8.60;5.67;;;18.00;1.00;;;;;;5088053;28;20516;-76
2022/08/22 01:04:44;;;;;;;9.30;6.20;;;17.90;1.00;;;;;;5084388;28;20548;-75
2022/08/22 01:07:22;;;;;;;12.27;6.00;;;18.00;1.00;;;;;;5065391;28;20463;-76
2022/08/22 01:10:20;;;;;;;11.20;6.37;;;17.90;1.00;;;;;;5083650;28;20433;-75
2022/08/22 01:13:09;;;;;;;11.10;5.70;;;17.80;1.00;;;;;;5086048;28;20488;-75
2022/08/22 01:15:36;;;;;;;9.17;6.27;;;17.70;1.00;;;;;;5087277;28;20402;-75
2022/08/22 01:18:17;;;;;;;8.23;5.70;;;17.80;1.00;;;;;;5073012;28;20461;-75
2022/08/22 01:20:55;;;;;;;11.10;5.30;;;17.80;1.00;;;;;;5089229;28;20784;-75
2022/08/22 01:23:56;;;;;;;8.47;5.67;;;17.90;1.00;;;;;;5086768;28;20807;-75
2022/08/22 01:26:49;;;;;;;10.10;5.73;;;18.00;1.00;;;;;;5089953;28;20401;-75
2022/08/22 01:29:34;;;;;;;8.33;5.60;;;18.20;1.00;;;;;;5087662;28;20486;-74
2022/08/22 01:32:21;;;;;;;7.63;5.63;;;18.20;1.00;;;;;;5088080;28;20548;-75
2022/08/22 01:35:24;;;;;;;7.43;5.63;;;18.20;1.00;;;;;;5076492;28;20429;-75
2022/08/22 01:38:24;;;;;;;7.60;5.73;;;18.20;1.00;;;;;;5064008;28;20437;-76
2022/08/22 01:41:06;;;;;;;8.17;5.57;;;18.20;1.00;;;;;;5088335;28;20421;-75
2022/08/22 01:43:56;;;;;;;7.60;5.40;;;18.10;1.00;;;;;;5085748;28;20453;-75
2022/08/22 01:46:30;;;;;;;7.30;5.53;;;18.10;1.00;;;;;;5069277;28;20401;-75
2022/08/22 01:49:21;;;;;;;8.77;6.00;;;18.00;1.00;;;;;;5081461;28;21048;-75
2022/08/22 01:52:00;;;;;;;7.47;5.70;;;18.00;1.00;;;;;;5081231;28;20465;-75
2022/08/22 01:54:44;;;;;;;6.70;4.70;;;18.00;1.00;;;;;;5087075;28;20515;-74
2022/08/22 01:57:11;;;;;;;6.20;5.27;;;17.90;1.00;;;;;;5086169;28;20496;-74
2022/08/22 01:59:43;;;;;;;9.13;5.70;;;17.90;1.00;;;;;;5092605;28;20426;-75
2022/08/22 02:02:35;;;;;;;7.13;5.20;;;17.80;1.00;;;;;;5088664;28;20437;-74
2022/08/22 02:05:17;;;;;;;9.87;6.33;;;17.80;1.00;;;;;;5079302;28;20434;-75
2022/08/22 02:08:18;;;;;;;9.30;5.67;;;17.80;1.00;;;;;;5096076;28;20415;-75
2022/08/22 02:10:51;;;;;;;8.20;5.40;;;17.90;1.00;;;;;;5081139;28;20971;-76
2022/08/22 02:13:39;;;;;;;6.87;5.30;;;17.90;1.00;;;;;;5095933;28;20425;-75
2022/08/22 02:16:11;;;;;;;12.83;6.00;;;17.90;1.00;;;;;;5086207;28;20457;-75
2022/08/22 02:19:03;;;;;;;7.77;5.60;;;18.00;1.00;;;;;;5095508;28;20444;-75
2022/08/22 02:21:57;;;;;;;6.63;5.10;;;18.00;1.00;;;;;;5092735;28;20444;-75
2022/08/22 02:24:32;;;;;;;7.67;6.20;;;18.10;1.00;;;;;;5095537;28;20959;-74
2022/08/22 02:27:06;;;;;;;8.77;5.20;;;18.10;1.00;;;;;;5093647;28;20539;-75
2022/08/22 02:29:58;;;;;;;9.17;5.50;;;18.20;1.00;;;;;;5094120;28;20421;-74
2022/08/22 02:32:32;;;;;;;8.23;6.23;;;18.20;1.00;;;;;;5089568;28;20560;-75
2022/08/22 02:35:04;;;;;;;7.07;5.70;;;18.20;1.00;;;;;;5088215;28;20429;-75
2022/08/22 02:37:47;;;;;;;10.10;6.37;;;18.10;1.00;;;;;;5095738;28;20406;-75
2022/08/22 02:40:12;;;;;;;14.77;6.20;;;18.00;1.00;;;;;;5093741;28;20429;-75
2022/08/22 02:43:17;;;;;;;10.03;6.03;;;17.90;1.00;;;;;;5095191;28;20777;-75
2022/08/22 02:46:09;;;;;;;11.63;5.80;;;17.90;1.00;;;;;;5089235;28;20236;-75
2022/08/22 02:48:38;;;;;;;7.87;5.63;;;17.90;1.00;;;;;;5095342;28;20416;-76
2022/08/22 02:51:20;;;;;;;7.90;5.73;;;17.90;1.00;;;;;;5085207;28;20553;-75
2022/08/22 02:53:54;;;;;;;6.53;5.03;;;17.80;1.00;;;;;;5110019;28;20440;-75
2022/08/22 02:56:30;;;;;;;12.80;5.47;;;17.80;1.00;;;;;;5090928;28;20520;-75
2022/08/22 02:59:23;;;;;;;8.87;5.60;;;17.80;1.00;;;;;;5095982;28;20833;-75
2022/08/22 03:01:50;;;;;;;13.33;5.93;;;17.70;1.00;;;;;;5086524;28;20438;-75
2022/08/22 03:04:30;;;;;;;9.37;6.03;;;17.60;1.00;;;;;;5083231;28;20465;-75
2022/08/22 03:07:14;;;;;;;9.93;5.80;;;17.60;1.00;;;;;;5094895;28;20493;-75
2022/08/22 03:09:40;;;;;;;7.77;5.40;;;17.50;1.00;;;;;;5091832;28;20429;-75
2022/08/22 03:12:33;;;;;;;12.50;5.93;;;17.30;1.00;;;;;;5091608;28;20457;-75
2022/08/22 03:15:11;;;;;;;13.73;5.90;;;17.20;1.00;;;;;;5090427;28;20176;-74
2022/08/22 03:18:02;;;;;;;9.17;5.70;;;17.10;1.00;;;;;;5091603;28;20406;-75
2022/08/22 03:20:57;;;;;;;7.70;5.53;;;17.10;1.00;;;;;;5085395;28;20518;-75
2022/08/22 03:23:49;;;;;;;13.53;5.90;;;17.10;1.00;;;;;;5088070;28;20441;-74
2022/08/22 03:26:24;;;;;;;7.03;5.20;;;17.00;1.00;;;;;;5085514;28;20443;-74
2022/08/22 03:28:55;;;;;;;10.50;5.40;;;16.90;1.00;;;;;;5091880;28;20988;-74
2022/08/22 03:31:23;;;;;;;11.37;5.70;;;16.90;1.00;;;;;;5086036;28;20472;-74
2022/08/22 03:34:16;;;;;;;11.23;5.57;;;16.80;1.00;;;;;;5091307;28;20422;-75
2022/08/22 03:37:13;;;;;;;11.90;5.70;;;16.70;1.00;;;;;;5089069;28;20406;-75
2022/08/22 03:39:48;;;;;;;10.80;5.73;;;16.70;1.00;;;;;;5087150;28;20431;-74
2022/08/22 03:42:44;;;;;;;6.57;4.90;;;16.70;1.00;;;;;;5091218;28;20408;-75
2022/08/22 03:45:31;;;;;;;9.20;5.30;;;16.60;1.00;;;;;;5088871;28;20442;-75
2022/08/22 03:48:07;;;;;;;8.13;5.40;;;16.60;1.00;;;;;;5091361;28;20539;-73
2022/08/22 03:51:01;;;;;;;7.10;4.70;;;16.60;1.00;;;;;;5084896;28;20462;-74
2022/08/22 03:53:44;;;;;;;9.37;5.50;;;16.60;1.00;;;;;;5086145;28;20518;-74
2022/08/22 03:56:19;;;;;;;10.50;5.80;;;16.60;1.00;;;;;;5084259;28;20405;-74
2022/08/22 03:59:30;;;;;;;8.53;5.40;;;16.50;1.00;;;;;;5085130;28;20429;-74
2022/08/22 04:01:55;;;;;;;8.50;5.43;;;16.50;1.00;;;;;;5087230;28;20449;-73
2022/08/22 04:05:05;;;;;;;10.10;5.47;;;16.50;1.00;;;;;;5091507;28;20425;-74
2022/08/22 04:07:50;;;;;;;11.20;5.50;;;16.50;1.00;;;;;;5070856;28;20201;-74
2022/08/22 04:10:41;;;;;;;8.73;5.20;;;16.50;1.00;;;;;;5073671;28;20434;-75
2022/08/22 04:13:53;;;;;;;8.40;4.90;;;16.50;1.00;;;;;;5090749;28;20846;-75
2022/08/22 04:16:44;;;;;;;6.10;4.97;;;16.40;1.00;;;;;;5073641;28;20950;-74
2022/08/22 04:19:39;;;;;;;6.07;4.70;;;16.40;1.00;;;;;;5085142;28;20422;-75
2022/08/22 04:22:25;;;;;;;12.17;5.07;;;16.30;1.00;;;;;;5083076;28;20432;-74
2022/08/22 04:25:02;;;;;;;11.13;5.00;;;16.20;1.00;;;;;;5090373;28;20604;-74
2022/08/22 04:27:39;;;;;;;10.37;5.20;;;16.20;1.00;;;;;;5086300;28;20436;-76
2022/08/22 04:30:30;;;;;;;8.43;5.47;;;16.10;1.00;;;;;;5075156;28;20524;-74
2022/08/22 04:33:03;;;;;;;7.73;5.00;;;16.10;1.00;;;;;;5089090;28;20497;-74
2022/08/22 04:35:31;;;;;;;8.30;5.33;;;16.10;1.00;;;;;;5084539;28;20700;-75
2022/08/22 04:38:20;;;;;;;11.93;5.83;;;16.10;1.00;;;;;;5088216;28;20425;-75
2022/08/22 04:41:23;;;;;;;6.93;5.10;;;16.10;1.00;;;;;;5081394;28;20480;-75
2022/08/22 04:44:04;;;;;;;6.03;5.40;;;16.20;1.00;;;;;;5085631;28;20479;-74
2022/08/22 04:46:48;;;;;;;10.90;5.00;;;16.20;1.00;;;;;;5086597;28;20528;-75
2022/08/22 04:49:38;;;;;;;15.00;5.00;;;16.20;1.00;;;;;;5083848;28;20456;-74
2022/08/22 04:52:30;;;;;;;7.00;5.10;;;16.20;1.00;;;;;;5096049;28;20619;-75
2022/08/22 04:55:40;;;;;;;8.27;5.20;;;16.30;1.00;;;;;;5091545;28;20434;-75
2022/08/22 04:58:29;;;;;;;6.07;4.80;;;16.30;1.00;;;;;;5082525;28;20912;-75
2022/08/22 05:01:03;;;;;;;7.40;4.90;;;16.40;1.00;;;;;;5076569;28;20834;-75
2022/08/22 05:03:32;;;;;;;8.13;5.60;;;16.40;1.00;;;;;;5089673;28;20455;-75
2022/08/22 05:05:59;;;;;;;8.57;5.70;;;16.40;1.00;;;;;;5083478;28;20444;-74
2022/08/22 05:08:29;;;;;;;10.10;5.40;;;16.40;1.00;;;;;;5090223;28;20500;-75
2022/08/22 05:10:57;;;;;;;11.43;5.77;;;16.30;1.00;;;;;;5083761;28;20478;-75
2022/08/22 05:13:35;;;;;;;10.13;6.50;;;16.40;1.00;;;;;;5089671;28;20441;-76
2022/08/22 05:16:05;;;;;;;9.20;5.83;;;16.40;1.00;;;;;;5084936;28;20433;-75
2022/08/22 05:18:38;;;;;;;8.67;5.80;;;16.40;1.00;;;;;;5089436;28;20413;-74
2022/08/22 05:21:07;;;;;;;10.20;5.77;;;16.40;1.00;;;;;;5083678;28;20467;-75
2022/08/22 05:23:52;;;;;;;10.87;6.20;;;16.50;1.00;;;;;;5086170;28;20438;-75
2022/08/22 05:26:19;;;;;;;7.60;5.40;;;16.60;1.00;;;;;;5075546;28;20442;-75
2022/08/22 05:28:52;;;;;;;7.77;5.10;;;16.70;1.00;;;;;;5085173;28;20446;-76
2022/08/22 05:31:27;;;;;;;8.60;5.70;;;16.80;1.00;;;;;;5075871;28;20463;-75
2022/08/22 05:33:59;;;;;;;8.20;5.80;;;16.90;1.00;;;;;;5083950;28;20453;-75
2022/08/22 05:36:30;;;;;;;9.57;5.63;;;17.00;1.00;;;;;;5081027;28;20446;-74
2022/08/22 05:39:10;;;;;;;7.27;5.33;;;17.10;1.00;;;;;;5087247;28;20410;-74
2022/08/22 05:41:37;;;;;;;7.77;5.50;;;17.20;1.00;;;;;;5081731;28;21228;-76
2022/08/22 05:44:06;;;;;;;6.93;5.33;;;17.50;1.00;;;;;;5084392;28;20552;-76
2022/08/22 05:46:44;;;;;;;9.03;5.87;;;17.80;1.00;;;;;;5089815;28;20459;-77
2022/08/22 05:49:38;;;;;;;8.60;6.03;;;18.00;1.00;;;;;;5082662;28;20441;-75
2022/08/22 05:52:27;;;;;;;9.83;6.23;;;18.20;1.00;;;;;;5081341;28;20542;-76
2022/08/22 05:55:21;;;;;;;9.30;6.30;;;18.40;1.00;;;;;;5084685;28;20449;-77
2022/08/22 05:57:54;;;;;;;6.53;5.30;;;18.50;1.00;;;;;;5087672;28;20605;-78
2022/08/22 06:00:24;;;;;;;7.67;6.10;;;18.70;1.00;;;;;;5082046;28;20525;-75
2022/08/22 06:03:21;;;;;;;9.80;6.60;;;18.80;1.00;;;;;;5079134;28;20465;-75
2022/08/22 06:05:55;;;;;;;11.43;6.27;;;18.80;1.00;;;;;;5088619;28;20429;-74
2022/08/22 06:08:28;;;;;;;9.93;6.60;;;18.90;1.00;;;;;;5086934;28;20434;-75
2022/08/22 06:10:57;;;;;;;9.27;6.13;;;18.90;1.00;;;;;;5088387;28;20468;-75
2022/08/22 06:13:32;;;;;;;7.30;5.73;;;19.00;1.00;;;;;;5086647;28;20503;-76
2022/08/22 06:16:20;;;;;;;8.00;6.00;;;19.20;1.00;;;;;;5082205;28;20513;-75
2022/08/22 06:18:48;;;;;;;12.23;6.40;;;19.40;1.00;;;;;;5074537;28;20434;-75
2022/08/22 06:21:31;;;;;;;9.83;6.47;;;19.50;1.00;;;;;;5090575;28;20955;-76
2022/08/22 06:23:59;;;;;;;9.40;5.90;;;19.70;1.00;;;;;;5083916;28;20461;-76
2022/08/22 06:26:30;;;;;;;14.50;6.10;;;19.90;1.00;;;;;;5089241;28;20449;-76
2022/08/22 06:28:59;;;;;;;9.03;6.07;;;20.10;1.00;;;;;;5084218;28;20427;-76
2022/08/22 06:31:41;;;;;;;9.10;5.70;;;20.30;1.00;;;;;;5078066;28;20461;-76
2022/08/22 06:34:23;;;;;;;9.50;5.50;;;20.50;1.00;;;;;;5088778;28;20460;-77
2022/08/22 06:36:51;;;;;;;9.40;5.80;;;20.80;1.00;;;;;;5082739;28;20433;-77
2022/08/22 06:39:35;;;;;;;9.50;6.00;;;21.00;1.00;;;;;;5088565;28;20424;-76
2022/08/22 06:42:09;;;;;;;9.23;5.70;;;21.00;1.00;;;;;;5083378;28;20429;-76
2022/08/22 06:44:43;;;;;;;7.73;5.60;;;21.20;1.00;;;;;;5083628;28;20529;-76
2022/08/22 06:47:18;;;;;;;10.27;5.40;;;21.40;1.00;;;;;;5077186;28;20823;-76
2022/08/22 06:49:44;;;;;;;13.43;6.13;;;21.70;1.00;;;;;;5085871;28;20425;-76
2022/08/22 06:52:17;;;;;;;9.37;5.60;;;22.00;1.00;;;;;;5075204;28;20457;-76
2022/08/22 06:54:46;;;;;;;17.50;6.40;;;22.30;1.00;;;;;;5088670;28;20452;-76
2022/08/22 06:57:33;;;;;;;9.80;5.47;;;22.60;1.00;;;;;;5093891;28;20477;-77
2022/08/22 07:00:03;;;;;;;10.10;5.50;;;22.90;1.00;;;;;;5087630;28;20509;-76
2022/08/22 07:02:38;;;;;;;13.63;5.27;;;23.10;1.00;;;;;;5083058;28;20506;-79
2022/08/22 07:05:08;;;;;;;7.70;5.40;;;23.30;1.00;;;;;;5081318;28;20508;-75
2022/08/22 07:07:35;;;;;;;10.90;5.47;;;23.50;1.00;;;;;;5087080;28;20518;-76
2022/08/22 07:10:01;;;;;;;18.00;4.97;;;23.40;1.00;;;;;;5079618;28;20437;-76
2022/08/22 07:12:31;;;;;;;9.20;5.10;;;23.60;1.00;;;;;;5094840;28;20497;-76
2022/08/22 07:15:08;;;;;;;9.77;5.30;;;23.80;1.00;;;;;;5090821;28;20410;-75
2022/08/22 07:17:34;;;;;;;8.03;5.30;;;24.00;1.00;;;;;;5080621;28;20792;-77
2022/08/22 07:20:23;;;;;;;7.30;5.23;;;24.10;1.00;;;;;;5091399;28;20421;-76
2022/08/22 07:23:02;;;;;;;8.87;6.23;;;24.40;1.00;;;;;;5090635;28;20194;-76
2022/08/22 07:25:30;;;;;;;10.47;5.93;;;24.60;1.00;;;;;;5092083;28;20440;-77
2022/08/22 07:28:13;;;;;;;6.70;5.57;;;25.00;1.00;;;;;;5084526;28;20444;-76
2022/08/22 07:30:41;;;;;;;8.53;5.50;;;25.20;1.00;;;;;;5082243;28;20793;-76
2022/08/22 07:33:25;;;;;;;8.33;5.03;;;25.40;1.00;;;;;;5087277;28;20915;-76
2022/08/22 07:35:58;;;;;;;8.03;5.90;;;25.60;1.00;;;;;;5083568;28;20838;-76
2022/08/22 07:38:41;;;;;;;8.73;5.30;;;25.80;1.00;;;;;;5086431;28;20932;-75
2022/08/22 07:41:15;;;;;;;9.80;5.70;;;25.80;1.00;;;;;;5084800;28;20506;-75
2022/08/22 07:43:50;;;;;;;7.50;5.10;;;26.10;1.00;;;;;;5085746;28;20549;-76
2022/08/22 07:46:35;;;;;;;7.30;4.90;;;26.90;1.00;;;;;;5086140;28;20802;-75
2022/08/22 07:49:15;;;;;;;12.17;5.13;;;27.60;1.00;;;;;;5082689;28;20464;-75
2022/08/22 07:52:09;;;;;;;7.60;5.00;;;28.60;1.00;;;;;;5087045;28;20457;-77
2022/08/22 07:55:00;;;;;;;7.47;5.10;;;29.90;1.00;;;;;;5098408;28;20289;-78
2022/08/22 07:57:35;;;;;;;7.93;5.30;;;31.10;1.00;;;;;;5091081;28;20203;-76
2022/08/22 08:00:10;;;;;;;7.68;4.85;;;32.30;1.00;;;;;;5083248;28;20181;-77
2022/08/22 08:02:37;;;;;;;8.32;4.72;;;33.20;1.00;;;;;;5080021;28;20171;-77
2022/08/22 08:05:04;;;;;;;10.52;4.65;;;34.40;1.00;;;;;;5082421;28;20179;-78
2022/08/22 08:07:31;;;;;;;6.18;4.82;;;34.70;1.00;;;;;;5099208;28;20274;-77
2022/08/22 08:10:09;;;;;;;9.02;4.63;;;35.70;1.00;;;;;;5084157;28;20613;-76
2022/08/22 08:12:38;;;;;;;9.30;4.60;;;35.40;1.00;;;;;;5088643;28;20203;-76
2022/08/22 08:15:08;;;;;;;7.07;4.10;;;35.90;1.00;;;;;;5087935;28;20171;-77
2022/08/22 08:17:36;;;;;;;7.22;4.38;;;36.30;1.00;;;;;;5096131;28;20172;-78
2022/08/22 08:20:07;;;;;;;9.00;4.63;;;36.30;1.00;;;;;;5079744;28;20168;-78
2022/08/22 08:22:34;;;;;;;7.75;4.60;;;36.60;1.00;;;;;;5090312;28;20172;-78
2022/08/22 08:25:00;;;;;;;5.63;4.30;;;36.40;1.00;;;;;;5085688;28;20190;-77
2022/08/22 08:30:20;;;;;;;7.18;4.57;;;35.10;1.00;;;;;;5079542;28;20248;-78
2022/08/22 08:32:52;;;;;;;5.38;4.50;;;34.70;1.00;;;;;;5080171;28;20202;-77
2022/08/22 08:35:27;;;;;;;7.97;4.60;;;34.60;1.00;;;;;;5076445;28;20180;-77
2022/08/22 08:37:59;;;;;;;10.05;5.10;;;35.60;1.00;;;;;;5073491;28;20202;-76
2022/08/22 08:40:30;;;;;;;11.80;4.85;;;36.40;1.00;;;;;;5098243;28;20176;-77
2022/08/22 08:46:08;;;;;;;6.28;4.15;;;37.50;1.00;;;;;;5089368;28;20228;-77
2022/08/22 08:49:08;;;;;;;5.85;4.45;;;37.80;1.00;;;;;;5079896;28;20183;-77
2022/08/22 08:52:04;;;;;;;7.05;4.05;;;37.50;1.00;;;;;;5086718;28;20606;-78
2022/08/22 08:54:56;;;;;;;6.63;4.30;;;37.30;1.00;;;;;;5085248;28;20191;-77
2022/08/22 08:58:07;;;;;;;7.10;4.60;;;37.60;1.00;;;;;;5091149;28;20604;-78
2022/08/22 09:00:48;;;;;;;8.93;4.28;;;38.20;1.00;;;;;;5079158;28;20585;-78
2022/08/22 09:03:26;;;;;;;8.05;4.15;;;37.90;1.00;;;;;;5083844;28;20201;-79
2022/08/22 09:06:25;;;;;;;8.90;4.50;;;37.90;1.00;;;;;;5085481;28;20728;-77
2022/08/22 09:09:11;;;;;;;9.02;4.60;;;38.10;1.00;;;;;;5088594;28;20203;-77
2022/08/22 09:12:01;;;;;;;10.02;4.43;;;38.50;1.00;;;;;;5085880;28;20265;-78
2022/08/22 09:15:02;;;;;;;6.85;3.80;;;38.80;1.00;;;;;;5086451;28;20203;-78
2022/08/22 09:17:50;;;;;;;8.32;4.10;;;39.50;1.00;;;;;;5085668;28;20290;-77
2022/08/22 09:20:51;;;;;;;6.75;3.92;;;39.20;1.00;;;;;;5095900;28;20674;-77
2022/08/22 09:23:56;;;;;;;5.70;4.05;;;38.90;1.00;;;;;;5083887;28;20297;-77
2022/08/22 09:26:40;;;;;;;5.63;3.83;;;38.70;1.00;;;;;;5091536;28;20166;-77
2022/08/22 09:29:26;;;;;;;7.13;4.15;;;38.90;1.00;;;;;;5090176;28;20712;-77
2022/08/22 09:32:07;;;;;;;5.97;4.38;;;39.40;1.00;;;;;;5084678;28;20221;-78
2022/08/22 09:35:01;;;;;;;6.80;4.50;;;39.30;1.00;;;;;;5095204;28;20233;-77
2022/08/22 09:37:47;;;;;;;4.88;3.83;;;39.60;1.00;;;;;;5083873;28;20554;-78
2022/08/22 09:40:29;;;;;;;5.18;3.70;;;39.70;1.00;;;;;;5078887;28;20190;-78
2022/08/22 09:43:05;;;;;;;5.63;3.58;;;40.20;1.00;;;;;;5080321;28;20203;-77
2022/08/22 09:45:52;;;;;;;4.47;3.95;;;40.60;1.00;;;;;;5079632;28;20547;-77
2022/08/22 09:48:45;;;;;;;5.80;3.90;;;40.50;1.00;;;;;;5079823;28;20202;-78
2022/08/22 09:51:44;;;;;;;5.90;4.40;;;40.60;1.00;;;;;;5094433;28;20190;-77
2022/08/22 09:54:14;;;;;;;5.35;3.25;;;41.40;1.00;;;;;;5088120;28;20242;-78
2022/08/22 09:56:51;;;;;;;4.80;3.72;;;41.80;1.00;;;;;;5092240;28;20655;-77
2022/08/22 09:59:23;;;;;;;8.40;4.15;;;42.50;1.00;;;;;;5089869;28;20198;-77
2022/08/22 10:02:16;;;;;;;5.00;3.33;;;43.30;1.00;;;;;;5090508;28;20180;-77
2022/08/22 10:05:05;;;;;;;9.27;3.55;;;42.90;1.00;;;;;;5093369;28;20232;-77
2022/08/22 10:07:33;;;;;;;5.63;3.40;;;42.00;1.00;;;;;;5087225;28;20179;-79
2022/08/22 10:10:15;;;;;;;5.50;3.58;;;42.10;1.00;;;;;;5082740;28;20179;-77
2022/08/22 10:12:59;;;;;;;7.10;3.70;;;42.60;1.00;;;;;;5081975;28;20203;-77
2022/08/22 10:15:46;;;;;;;6.32;3.50;;;43.00;1.00;;;;;;5085234;28;20210;-78
2022/08/22 10:18:44;;;;;;;6.25;3.78;;;43.30;1.00;;;;;;5075726;28;20195;-77
2022/08/22 10:21:18;;;;;;;5.57;3.90;;;43.00;1.00;;;;;;5081156;28;20256;-78
2022/08/22 10:23:56;;;;;;;6.88;3.65;;;43.90;1.00;;;;;;5085060;28;20218;-78
2022/08/22 10:26:47;;;;;;;3.50;2.92;;;43.20;1.00;;;;;;5093531;28;20549;-77
2022/08/22 10:29:42;;;;;;;5.18;3.40;;;43.30;1.00;;;;;;5078937;28;20549;-78
2022/08/22 10:32:08;;;;;;;5.55;3.85;;;42.80;1.00;;;;;;5086491;28;20203;-78
2022/08/22 10:34:38;;;;;;;5.80;3.70;;;43.00;1.00;;;;;;5086095;28;20194;-78
2022/08/22 10:37:13;;;;;;;6.03;3.90;;;42.60;1.00;;;;;;5090748;28;20171;-79
2022/08/22 10:39:45;;;;;;;5.60;3.65;;;42.20;1.00;;;;;;5089106;28;20206;-80
2022/08/22 10:42:21;;;;;;;6.72;3.65;;;42.50;1.00;;;;;;5087992;28;20176;-78
2022/08/22 10:45:08;;;;;;;9.88;3.65;;;42.80;1.00;;;;;;5094920;28;20227;-78
2022/08/22 10:47:40;;;;;;;5.68;3.92;;;43.30;1.00;;;;;;5094098;28;20175;-78
2022/08/22 10:50:14;;;;;;;5.13;3.17;;;43.90;1.00;;;;;;5091820;28;20205;-78
2022/08/22 10:53:29;;;;;;;5.30;3.88;;;44.40;1.00;;;;;;5101388;28;20239;-78
2022/08/22 10:55:46;;;;;;;4.95;3.20;;;44.60;1.00;;;;;;5089773;28;20235;-79
2022/08/22 10:58:19;;;;;;;7.13;3.78;;;46.10;1.00;;;;;;5085074;28;20507;-78
2022/08/22 11:00:53;;;;;;;7.78;3.55;;;46.90;1.00;;;;;;5085386;28;20201;-78
2022/08/22 11:03:41;;;;;;;5.30;3.47;;;46.50;1.00;;;;;;5086479;28;20553;-78
2022/08/22 11:06:13;;;;;;;9.80;3.35;;;47.30;1.00;;;;;;5091022;28;20245;-78
2022/08/22 11:09:06;;;;;;;5.55;3.20;;;47.50;1.00;;;;;;5093339;28;20176;-78
2022/08/22 11:11:46;;;;;;;5.65;3.95;;;47.70;1.00;;;;;;5080172;28;20207;-79
2022/08/22 11:14:37;;;;;;;4.80;3.28;;;47.20;1.00;;;;;;5091674;28;20214;-78
2022/08/22 11:17:21;;;;;;;6.80;3.53;;;47.10;1.00;;;;;;5082902;28;20538;-78
2022/08/22 11:20:05;;;;;;;5.75;3.20;;;46.40;1.00;;;;;;5091684;28;20178;-78
2022/08/22 11:23:19;;;;;;;9.95;3.15;;;46.00;1.00;;;;;;5087080;28;20530;-78
2022/08/22 11:26:04;;;;;;;4.78;2.90;;;46.00;1.00;;;;;;5052577;28;20192;-78
2022/08/22 11:29:07;;;;;;;14.23;3.55;;;46.60;1.00;;;;;;5092399;28;20191;-81
2022/08/22 11:32:02;;;;;;;6.22;3.10;;;46.70;1.00;;;;;;5074440;28;20511;-78
2022/08/22 11:34:41;;;;;;;5.78;3.10;;;47.40;1.00;;;;;;5087473;28;20276;-77
2022/08/22 11:37:18;;;;;;;4.85;3.47;;;47.80;1.00;;;;;;5088425;28;20661;-78
2022/08/22 11:40:00;;;;;;;7.40;3.60;;;48.10;1.00;;;;;;5090813;28;20178;-78
2022/08/22 11:42:31;;;;;;;4.43;3.40;;;48.00;1.00;;;;;;5088311;28;20206;-78
2022/08/22 11:45:00;;;;;;;4.45;2.97;;;48.40;1.00;;;;;;5095687;28;20245;-78
2022/08/22 11:47:34;;;;;;;5.75;3.40;;;48.50;1.00;;;;;;5091730;28;20260;-78
2022/08/22 11:50:25;;;;;;;5.68;3.03;;;47.50;1.00;;;;;;5092915;28;20613;-77
2022/08/22 11:53:19;;;;;;;4.95;3.38;;;47.50;1.00;;;;;;5089001;28;20245;-77
2022/08/22 11:55:59;;;;;;;5.78;3.30;;;48.50;1.00;;;;;;5082770;28;20183;-78
2022/08/22 11:58:43;;;;;;;4.45;3.38;;;49.40;1.00;;;;;;5078331;28;20611;-78
2022/08/22 12:01:21;;;;;;;3.75;2.85;;;49.70;1.00;;;;;;5081458;28;20482;-77
2022/08/22 12:04:20;;;;;;;3.53;2.53;;;49.00;1.00;;;;;;5091996;28;20218;-79
2022/08/22 12:06:58;;;;;;;4.97;3.17;;;48.90;1.00;;;;;;5080944;28;20615;-78
2022/08/22 12:09:50;;;;;;;5.82;3.10;;;48.30;1.00;;;;;;5079787;28;20180;-78
2022/08/22 12:12:43;;;;;;;4.15;2.60;;;48.70;1.00;;;;;;5086217;28;20773;-78
2022/08/22 12:15:27;;;;;;;3.95;2.60;;;48.60;1.00;;;;;;5090096;28;20538;-78
2022/08/22 12:18:27;;;;;;;4.35;2.30;;;49.00;1.00;;;;;;5088150;28;20267;-78
2022/08/22 12:21:21;;;;;;;3.85;2.70;;;49.30;1.00;;;;;;5083659;28;20271;-77
2022/08/22 12:23:53;;;;;;;3.63;2.83;;;49.40;1.00;;;;;;5079706;28;20203;-78
2022/08/22 12:26:53;;;;;;;8.50;3.03;;;48.00;1.00;;;;;;5083967;28;20199;-77
2022/08/22 12:29:40;;;;;;;5.70;3.03;;;45.20;1.00;;;;;;5090400;28;20260;-78
2022/08/22 12:32:38;;;;;;;6.57;3.00;;;44.40;1.00;;;;;;5083091;28;20202;-77
2022/08/22 12:35:23;;;;;;;6.85;3.20;;;43.10;1.00;;;;;;5078216;28;20177;-77
2022/08/22 12:38:06;;;;;;;7.60;3.30;;;40.60;1.00;;;;;;5087720;28;20187;-79
2022/08/22 12:40:51;;;;;;;7.68;3.50;;;40.30;1.00;;;;;;5089020;28;20171;-77
2022/08/22 12:43:29;;;;;;;5.40;3.35;;;39.10;1.00;;;;;;5084921;28;20191;-78
2022/08/22 12:46:10;;;;;;;5.80;3.20;;;38.80;1.00;;;;;;5088573;28;20236;-78
2022/08/22 12:48:51;;;;;;;4.20;3.15;;;40.50;1.00;;;;;;5088507;28;20183;-79
2022/08/22 12:51:48;;;;;;;4.28;3.10;;;42.40;1.00;;;;;;5085278;28;20290;-78
2022/08/22 12:54:28;;;;;;;5.38;3.20;;;43.30;1.00;;;;;;5084907;28;20195;-77
2022/08/22 12:57:11;;;;;;;4.72;3.17;;;45.40;1.00;;;;;;5091718;28;20184;-80
2022/08/22 12:59:41;;;;;;;3.92;3.00;;;46.80;1.00;;;;;;5087824;28;20175;-77
2022/08/22 13:02:27;;;;;;;4.22;3.10;;;48.00;1.00;;;;;;5085670;28;20582;-78
2022/08/22 13:05:01;;;;;;;6.82;3.30;;;47.80;1.00;;;;;;5086582;28;20810;-78
2022/08/22 13:07:30;;;;;;;4.50;3.55;;;48.00;1.00;;;;;;5081582;28;20213;-78
2022/08/22 13:10:14;;;;;;;5.07;2.92;;;47.30;1.00;;;;;;5079303;28;20673;-78
2022/08/22 13:12:48;;;;;;;4.15;3.03;;;46.30;1.00;;;;;;5082453;28;20207;-78
2022/08/22 13:15:19;;;;;;;4.80;3.10;;;46.00;1.00;;;;;;5090122;28;20237;-78
2022/08/22 13:17:46;;;;;;;4.10;2.97;;;45.70;1.00;;;;;;5088401;28;20171;-77
2022/08/22 13:20:23;;;;;;;4.45;2.95;;;46.40;1.00;;;;;;5093515;28;20616;-78
2022/08/22 13:22:49;;;;;;;4.30;3.20;;;46.70;1.00;;;;;;5088133;28;20191;-78
2022/08/22 13:25:25;;;;;;;4.28;3.15;;;46.40;1.00;;;;;;5095433;28;20688;-78
2022/08/22 13:27:55;;;;;;;11.13;3.33;;;46.20;1.00;;;;;;5097383;28;20677;-78
2022/08/22 13:30:26;;;;;;;3.40;3.10;;;46.50;1.00;;;;;;5087450;28;20187;-78
2022/08/22 13:33:01;;;;;;;5.38;3.28;;;46.50;1.00;;;;;;5076251;28;20221;-78
2022/08/22 13:35:34;;;;;;;4.10;3.25;;;46.40;1.00;;;;;;5092169;28;20187;-78
2022/08/22 13:38:18;;;;;;;4.55;3.63;;;45.60;1.00;;;;;;5081679;28;20177;-77
2022/08/22 13:40:48;;;;;;;6.07;3.55;;;43.60;1.00;;;;;;5088221;28;20322;-78
2022/08/22 13:43:22;;;;;;;8.70;3.30;;;40.90;1.00;;;;;;5085627;28;20554;-78
2022/08/22 13:45:57;;;;;;;5.28;3.85;;;37.90;1.00;;;;;;5082979;28;20170;-78
2022/08/22 13:48:28;;;;;;;4.88;3.35;;;36.20;1.00;;;;;;5088400;28;20182;-78
2022/08/22 13:51:13;;;;;;;4.85;3.70;;;35.30;1.00;;;;;;5086388;28;20732;-77
2022/08/22 13:53:43;;;;;;;5.28;3.50;;;35.20;1.00;;;;;;5082293;28;20195;-77
2022/08/22 13:56:16;;;;;;;4.50;3.40;;;37.80;1.00;;;;;;5083638;28;20792;-77
2022/08/22 13:58:49;;;;;;;4.13;3.30;;;41.10;1.00;;;;;;5091368;28;20171;-78
2022/08/22 14:01:31;;;;;;;5.43;3.30;;;42.60;1.00;;;;;;5090370;28;20171;-78
2022/08/22 14:04:04;;;;;;;6.57;3.10;;;45.30;1.00;;;;;;5090064;28;20217;-79
2022/08/22 14:06:48;;;;;;;4.22;3.28;;;45.20;1.00;;;;;;5088547;28;20186;-78
2022/08/22 14:09:22;;;;;;;5.15;3.40;;;45.70;1.00;;;;;;5090819;28;20167;-78
2022/08/22 14:11:53;;;;;;;6.28;3.90;;;46.40;1.00;;;;;;5087010;28;20221;-78